Aviation Digital Data Service (ADDS)

Output produced by METARs form (0023 UTC 29 June 2017)
found at http://aviationweather.gov/adds/metars/
 
KDET 282321Z 2900/2924 18008KT P6SM BKN120 
     TEMPO 2900/2901 P6SM -SHRA OVC100 
     FM290600 19012KT P6SM SCT060 OVC120 WS015/24045KT 
     FM291300 21015G25KT P6SM SCT050 BKN150 
     FM291700 22018G26KT P6SM BKN045